Time;durP1;ratioP1;P1;durP2;ratioP2;P2;SDS_P1;SDS_P2;PMS_P1;PMS_P2;Temp;Humidity;BMP_temperature;BMP_pressure;BME280_temperature;BME280_humidity;BME280_pressure;Samples;Min_cycle;Max_cycle;Signal;HPM_P1;HPM_P2
2023/01/27 00:01:56;;;;;;;8.75;7.75;;;-1.60;98.40;;;;;;5106687;28;20036;-72
2023/01/27 00:04:21;;;;;;;9.20;8.23;;;-1.50;98.10;;;;;;5098145;28;20077;-71
2023/01/27 00:06:47;;;;;;;8.40;7.63;;;-1.60;98.30;;;;;;5101611;28;20094;-72
2023/01/27 00:09:13;;;;;;;12.10;11.00;;;-1.40;97.90;;;;;;5102498;28;20266;-71
2023/01/27 00:14:22;;;;;;;8.75;8.05;;;-1.40;98.30;;;;;;5101553;28;20047;-72
2023/01/27 00:16:48;;;;;;;7.40;6.80;;;-1.30;98.20;;;;;;5090359;28;20024;-71
2023/01/27 00:19:18;;;;;;;8.77;8.00;;;-1.50;97.90;;;;;;5087239;28;20040;-72
2023/01/27 00:24:35;;;;;;;9.10;7.50;;;-1.50;98.30;;;;;;5098895;28;20401;-73
2023/01/27 00:27:01;;;;;;;10.23;7.95;;;-1.60;97.80;;;;;;5096032;28;20110;-71
2023/01/27 00:29:27;;;;;;;10.38;8.15;;;-1.70;97.70;;;;;;5093744;28;20030;-71
2023/01/27 00:34:38;;;;;;;11.98;7.88;;;-1.80;98.00;;;;;;5092588;28;20451;-71
2023/01/27 00:37:04;;;;;;;6.82;6.30;;;-1.70;98.40;;;;;;5100375;28;20028;-71
2023/01/27 00:39:29;;;;;;;13.00;8.32;;;-1.60;97.90;;;;;;5096163;28;20043;-72
2023/01/27 00:41:55;;;;;;;9.98;7.32;;;-1.50;97.80;;;;;;5101902;28;20053;-72
2023/01/27 00:44:22;;;;;;;11.02;8.02;;;-1.60;97.70;;;;;;5098001;28;20127;-71
2023/01/27 00:46:48;;;;;;;9.52;7.47;;;-1.70;97.40;;;;;;5094400;28;20028;-71
2023/01/27 00:49:14;;;;;;;9.80;7.80;;;-1.70;97.40;;;;;;5099799;28;20036;-71
2023/01/27 00:51:40;;;;;;;8.02;6.78;;;-1.70;97.80;;;;;;5094274;28;20481;-72
2023/01/27 00:54:06;;;;;;;8.50;7.70;;;-1.70;98.00;;;;;;5077821;28;20498;-71
2023/01/27 00:56:31;;;;;;;9.05;8.20;;;-1.60;97.90;;;;;;5098171;28;20028;-72
2023/01/27 00:58:57;;;;;;;10.18;9.13;;;-1.60;97.90;;;;;;5097095;28;20932;-72
2023/01/27 01:01:23;;;;;;;11.23;10.02;;;-1.70;98.20;;;;;;5099584;28;20045;-71
2023/01/27 01:03:48;;;;;;;8.93;7.35;;;-1.50;98.20;;;;;;5091692;28;20028;-71
2023/01/27 01:06:16;;;;;;;11.50;8.75;;;-1.60;98.20;;;;;;5102302;28;20036;-72
2023/01/27 01:08:42;;;;;;;9.15;8.25;;;-1.70;97.70;;;;;;5093046;28;20039;-72
2023/01/27 01:11:12;;;;;;;8.27;7.47;;;-1.70;97.70;;;;;;5104055;28;20028;-71
2023/01/27 01:13:38;;;;;;;9.55;8.65;;;-1.80;97.80;;;;;;5095666;28;20020;-71
2023/01/27 01:16:10;;;;;;;9.32;8.23;;;-1.90;98.10;;;;;;5095152;28;20034;-72
2023/01/27 01:18:36;;;;;;;12.77;11.60;;;-1.80;98.00;;;;;;5097901;28;20505;-71
2023/01/27 01:21:02;;;;;;;12.10;9.45;;;-1.90;97.80;;;;;;5096336;28;20052;-71
2023/01/27 01:23:28;;;;;;;10.45;9.10;;;-1.70;98.20;;;;;;5100290;28;20035;-73
2023/01/27 01:25:56;;;;;;;9.20;8.40;;;-1.60;98.40;;;;;;5092980;28;20078;-73
2023/01/27 01:28:22;;;;;;;8.70;7.88;;;-1.60;98.30;;;;;;5105897;28;20051;-73
2023/01/27 01:30:48;;;;;;;10.63;9.75;;;-1.60;98.20;;;;;;5098526;28;20023;-73
2023/01/27 01:33:15;;;;;;;10.10;8.20;;;-1.50;98.10;;;;;;5086083;28;20520;-73
2023/01/27 01:35:40;;;;;;;8.68;7.88;;;-1.60;97.90;;;;;;5102397;28;20038;-72
2023/01/27 01:38:06;;;;;;;7.82;6.82;;;-1.70;97.90;;;;;;5092182;28;20053;-73
2023/01/27 01:40:32;;;;;;;9.27;8.35;;;-1.60;97.80;;;;;;5103210;28;20039;-73
2023/01/27 01:43:00;;;;;;;9.65;8.63;;;-1.70;97.90;;;;;;5087593;28;20023;-73
2023/01/27 01:45:35;;;;;;;8.98;7.85;;;-1.60;98.10;;;;;;5102070;28;20024;-73
2023/01/27 01:48:06;;;;;;;9.93;8.93;;;-1.60;97.90;;;;;;5085804;28;20416;-73
2023/01/27 01:50:34;;;;;;;11.55;10.48;;;-1.60;97.90;;;;;;5089924;28;20020;-72
2023/01/27 01:53:02;;;;;;;11.82;10.10;;;-1.60;98.20;;;;;;5093089;28;20039;-73
2023/01/27 01:55:29;;;;;;;10.00;9.00;;;-1.50;98.10;;;;;;5089084;28;20043;-73
2023/01/27 01:57:55;;;;;;;7.63;6.90;;;-1.50;97.80;;;;;;5103509;28;20040;-71
2023/01/27 02:00:21;;;;;;;15.93;14.63;;;-1.60;97.80;;;;;;5094947;28;20032;-72
2023/01/27 02:02:49;;;;;;;9.60;7.97;;;-1.70;97.80;;;;;;5094697;28;20118;-72
2023/01/27 02:05:25;;;;;;;12.75;9.05;;;-1.80;98.00;;;;;;5095582;28;20036;-71
2023/01/27 02:08:15;;;;;;;8.70;7.90;;;-1.70;98.20;;;;;;5096609;28;20024;-72
2023/01/27 02:10:41;;;;;;;10.02;8.30;;;-1.70;98.40;;;;;;5094930;28;20505;-72
2023/01/27 02:13:07;;;;;;;7.57;6.93;;;-1.70;97.90;;;;;;5097872;28;20040;-71
2023/01/27 02:15:33;;;;;;;9.85;8.70;;;-1.60;97.90;;;;;;5103651;28;20027;-71
2023/01/27 02:18:00;;;;;;;9.90;9.00;;;-1.60;98.30;;;;;;5095104;28;20031;-71
2023/01/27 02:20:39;;;;;;;10.40;9.27;;;-1.60;98.50;;;;;;5096189;28;20042;-72
2023/01/27 02:23:31;;;;;;;9.20;7.82;;;-1.70;98.20;;;;;;5091830;28;20490;-72
2023/01/27 02:26:04;;;;;;;7.82;7.05;;;-1.70;98.00;;;;;;5107002;28;20020;-71
2023/01/27 02:28:31;;;;;;;6.35;5.78;;;-1.90;97.70;;;;;;5094212;28;20179;-71
2023/01/27 02:30:57;;;;;;;7.28;6.68;;;-1.70;97.90;;;;;;5101119;28;20431;-71
2023/01/27 02:33:23;;;;;;;9.73;8.07;;;-1.70;98.10;;;;;;5097027;28;20028;-72
2023/01/27 02:35:59;;;;;;;8.73;7.82;;;-1.70;97.70;;;;;;5094193;28;20064;-71
2023/01/27 02:38:29;;;;;;;8.02;7.22;;;-1.60;98.00;;;;;;5104473;28;20043;-71
2023/01/27 02:41:00;;;;;;;9.68;7.40;;;-1.60;97.80;;;;;;5092339;28;20036;-71
2023/01/27 02:43:25;;;;;;;8.10;7.25;;;-1.80;97.40;;;;;;5101693;28;20042;-71
2023/01/27 02:45:51;;;;;;;43.28;39.53;;;-1.90;97.70;;;;;;5101029;28;20024;-71
2023/01/27 02:48:16;;;;;;;7.75;7.05;;;-1.90;97.70;;;;;;5080279;28;20036;-72
2023/01/27 02:50:42;;;;;;;7.70;6.97;;;-1.80;97.80;;;;;;5103519;28;20032;-71
2023/01/27 02:53:08;;;;;;;9.77;8.65;;;-1.80;98.00;;;;;;5096876;28;20024;-71
2023/01/27 02:55:33;;;;;;;10.45;9.55;;;-1.70;98.20;;;;;;5104424;28;20089;-71
2023/01/27 02:57:59;;;;;;;6.57;6.03;;;-1.70;97.80;;;;;;5092806;28;20035;-71
2023/01/27 03:00:25;;;;;;;7.15;6.53;;;-1.70;97.50;;;;;;5096828;28;20590;-72
2023/01/27 03:02:50;;;;;;;8.02;6.47;;;-1.70;97.60;;;;;;5102400;28;20519;-71
2023/01/27 03:05:16;;;;;;;8.07;6.75;;;-1.90;97.00;;;;;;5096884;28;20036;-71
2023/01/27 03:07:42;;;;;;;7.50;6.75;;;-1.90;96.90;;;;;;5106049;28;20020;-71
2023/01/27 03:10:09;;;;;;;7.55;7.00;;;-2.00;97.10;;;;;;5094073;28;20032;-71
2023/01/27 03:12:34;;;;;;;8.00;7.20;;;-2.00;97.10;;;;;;5104836;28;20024;-71
2023/01/27 03:20:29;;;;;;;8.07;7.00;;;-1.80;97.60;;;;;;5102721;28;20157;-72
2023/01/27 03:22:54;;;;;;;7.68;6.97;;;-1.70;97.80;;;;;;5099475;28;20472;-72
2023/01/27 03:25:20;;;;;;;7.57;6.80;;;-1.70;97.50;;;;;;5103046;28;20111;-72
2023/01/27 03:27:45;;;;;;;10.55;6.45;;;-1.60;97.50;;;;;;5097276;28;20127;-72
2023/01/27 03:30:11;;;;;;;6.88;6.28;;;-1.70;97.40;;;;;;5097560;28;20031;-72
2023/01/27 03:32:37;;;;;;;7.47;6.30;;;-1.60;97.30;;;;;;5100247;28;20417;-71
2023/01/27 03:35:03;;;;;;;7.75;7.05;;;-1.70;97.00;;;;;;5102756;28;20034;-72
2023/01/27 03:48:34;;;;;;;10.55;6.57;;;-1.70;97.90;;;;;;5102849;28;20042;-71
2023/01/27 03:51:03;;;;;;;9.05;7.18;;;-1.70;97.70;;;;;;5090846;28;20490;-71
2023/01/27 03:53:29;;;;;;;7.35;6.65;;;-1.60;97.30;;;;;;5107428;28;20023;-71
2023/01/27 03:55:54;;;;;;;6.95;6.35;;;-1.70;96.70;;;;;;5098548;28;20097;-71
2023/01/27 03:58:29;;;;;;;7.30;6.32;;;-1.70;97.10;;;;;;5086721;28;20032;-71
2023/01/27 04:00:57;;;;;;;6.10;5.55;;;-1.80;97.30;;;;;;5098298;28;20077;-71
2023/01/27 04:08:59;;;;;;;6.65;6.05;;;-1.70;97.70;;;;;;5096291;28;20038;-72
2023/01/27 04:14:11;;;;;;;7.70;6.95;;;-1.60;97.80;;;;;;5090229;28;20088;-72
2023/01/27 04:16:37;;;;;;;7.97;7.15;;;-1.80;97.40;;;;;;5104939;28;20106;-72
2023/01/27 04:19:07;;;;;;;7.53;6.82;;;-1.80;97.40;;;;;;5097480;28;20114;-72
2023/01/27 04:21:33;;;;;;;9.75;7.10;;;-1.90;97.60;;;;;;5103812;28;20047;-72
2023/01/27 04:23:59;;;;;;;7.03;6.28;;;-1.80;97.90;;;;;;5098138;28;20055;-72
2023/01/27 04:26:25;;;;;;;14.32;8.30;;;-1.80;98.00;;;;;;5099790;28;20434;-71
2023/01/27 04:28:51;;;;;;;9.68;8.73;;;-1.80;98.10;;;;;;5100880;28;20084;-72
2023/01/27 04:31:17;;;;;;;7.80;7.03;;;-1.70;98.50;;;;;;5093996;28;20060;-72
2023/01/27 04:33:43;;;;;;;10.07;8.40;;;-1.80;97.80;;;;;;5103796;28;20063;-72
2023/01/27 04:36:11;;;;;;;5.15;4.75;;;-1.70;97.90;;;;;;5097638;28;20082;-72
2023/01/27 04:38:37;;;;;;;8.13;6.85;;;-1.80;97.10;;;;;;5099271;28;20405;-71
2023/01/27 04:41:02;;;;;;;8.57;7.80;;;-1.90;97.10;;;;;;5088446;28;20039;-71
2023/01/27 04:43:29;;;;;;;7.78;6.47;;;-1.80;97.50;;;;;;5094046;28;20027;-73
2023/01/27 04:45:54;;;;;;;7.93;6.95;;;-1.90;97.40;;;;;;5101422;28;20032;-71
2023/01/27 04:48:20;;;;;;;7.53;6.82;;;-1.90;97.40;;;;;;5092753;28;20429;-72
2023/01/27 04:50:46;;;;;;;7.25;6.50;;;-1.80;97.70;;;;;;5097852;28;20074;-72
2023/01/27 04:53:11;;;;;;;7.78;6.38;;;-1.80;97.70;;;;;;5096129;28;20036;-72
2023/01/27 04:55:37;;;;;;;7.38;6.78;;;-2.00;97.70;;;;;;5098675;28;20032;-72
2023/01/27 04:58:03;;;;;;;7.20;6.50;;;-2.00;97.90;;;;;;5101229;28;20020;-72
2023/01/27 05:00:30;;;;;;;6.10;5.60;;;-1.80;97.80;;;;;;5090084;28;20028;-72
2023/01/27 05:02:56;;;;;;;9.02;8.13;;;-1.80;97.70;;;;;;5105216;28;20040;-72
2023/01/27 05:05:22;;;;;;;7.00;6.30;;;-1.70;97.60;;;;;;5096458;28;20043;-72
2023/01/27 05:07:47;;;;;;;6.38;5.80;;;-1.70;97.30;;;;;;5099461;28;20055;-72
2023/01/27 05:10:13;;;;;;;6.55;5.95;;;-1.80;96.60;;;;;;5101175;28;20043;-72
2023/01/27 05:12:38;;;;;;;7.28;6.57;;;-1.90;97.00;;;;;;5089251;28;20547;-73
2023/01/27 05:15:05;;;;;;;6.32;5.72;;;-1.80;97.40;;;;;;5093292;28;20073;-72
2023/01/27 05:17:32;;;;;;;6.47;5.97;;;-1.80;97.20;;;;;;5095451;28;20031;-73
2023/01/27 05:19:57;;;;;;;6.28;5.68;;;-1.80;97.40;;;;;;5104197;28;20034;-72
2023/01/27 05:22:23;;;;;;;7.03;6.30;;;-1.70;97.40;;;;;;5098238;28;20055;-72
2023/01/27 05:24:49;;;;;;;6.05;5.43;;;-1.70;97.50;;;;;;5096220;28;20036;-73
2023/01/27 05:27:16;;;;;;;6.13;5.60;;;-1.60;97.20;;;;;;5100208;28;20517;-73
2023/01/27 05:29:42;;;;;;;6.63;6.10;;;-1.70;96.90;;;;;;5093215;28;20020;-72
2023/01/27 05:32:09;;;;;;;5.85;5.35;;;-1.80;96.50;;;;;;5101054;28;20482;-72
2023/01/27 05:34:34;;;;;;;6.32;5.72;;;-1.80;96.60;;;;;;5095882;28;20024;-72
2023/01/27 05:37:00;;;;;;;5.93;5.32;;;-1.80;96.90;;;;;;5102079;28;20027;-72
2023/01/27 05:39:26;;;;;;;6.32;5.82;;;-1.70;97.20;;;;;;5095308;28;20068;-72
2023/01/27 05:41:53;;;;;;;5.95;5.43;;;-1.70;97.10;;;;;;5098696;28;20042;-72
2023/01/27 05:44:18;;;;;;;5.72;4.70;;;-1.70;97.20;;;;;;5102261;28;20047;-71
2023/01/27 05:46:44;;;;;;;5.40;5.00;;;-1.60;97.30;;;;;;5093441;28;20032;-72
2023/01/27 05:49:10;;;;;;;5.85;5.35;;;-1.70;96.90;;;;;;5082247;28;20115;-73
2023/01/27 05:51:38;;;;;;;5.70;5.22;;;-1.70;96.60;;;;;;5085577;28;20059;-73
2023/01/27 05:54:05;;;;;;;5.95;5.40;;;-1.80;96.60;;;;;;5092134;28;20538;-72
2023/01/27 05:56:30;;;;;;;5.53;5.03;;;-1.80;96.60;;;;;;5091737;28;20020;-72
2023/01/27 05:58:57;;;;;;;6.28;5.38;;;-1.80;96.60;;;;;;5089813;28;20507;-72
2023/01/27 06:01:26;;;;;;;5.40;5.00;;;-1.80;97.20;;;;;;5100663;28;20034;-70
2023/01/27 06:03:52;;;;;;;4.03;3.70;;;-1.70;97.30;;;;;;5089664;28;20081;-70
2023/01/27 06:06:21;;;;;;;5.50;5.00;;;-1.70;97.20;;;;;;5097492;28;20025;-70
2023/01/27 06:08:47;;;;;;;5.75;5.30;;;-1.70;97.30;;;;;;5093583;28;20028;-70
2023/01/27 06:11:15;;;;;;;5.65;5.15;;;-1.60;97.30;;;;;;5094142;28;20739;-71
2023/01/27 06:13:41;;;;;;;6.15;5.55;;;-1.70;96.70;;;;;;5098141;28;20077;-70
2023/01/27 06:16:09;;;;;;;7.10;5.03;;;-1.80;96.80;;;;;;5094397;28;20023;-72
2023/01/27 06:18:36;;;;;;;5.50;5.10;;;-1.80;96.80;;;;;;5084070;28;20023;-72
2023/01/27 06:21:03;;;;;;;5.30;4.90;;;-1.80;96.90;;;;;;5093039;28;20064;-74
2023/01/27 06:23:29;;;;;;;5.95;5.50;;;-1.80;97.20;;;;;;5094443;28;20077;-77
2023/01/27 06:25:55;;;;;;;6.63;6.00;;;-1.80;97.20;;;;;;5088238;28;20024;-72
2023/01/27 06:28:21;;;;;;;7.10;6.40;;;-1.80;97.40;;;;;;5097682;28;20484;-73
2023/01/27 06:30:49;;;;;;;6.22;5.78;;;-1.90;97.40;;;;;;5096738;28;20028;-79
2023/01/27 06:33:15;;;;;;;8.73;8.02;;;-1.90;97.40;;;;;;5085935;28;20086;-77
2023/01/27 06:35:40;;;;;;;6.03;5.43;;;-1.90;97.50;;;;;;5100870;28;20035;-78
2023/01/27 06:38:09;;;;;;;6.88;6.28;;;-1.90;97.60;;;;;;5090460;28;20032;-71
2023/01/27 06:40:36;;;;;;;5.85;5.32;;;-1.90;97.90;;;;;;5102531;28;20501;-77
2023/01/27 06:43:02;;;;;;;6.10;5.70;;;-1.90;97.60;;;;;;5082554;28;20087;-76
2023/01/27 06:45:28;;;;;;;7.90;6.13;;;-1.90;97.60;;;;;;5102505;28;20074;-77
2023/01/27 06:48:02;;;;;;;6.30;5.70;;;-1.90;97.70;;;;;;5099199;28;20028;-84
2023/01/27 06:50:29;;;;;;;6.50;5.97;;;-1.90;97.90;;;;;;5087087;28;20048;-80
2023/01/27 06:53:06;;;;;;;6.82;6.22;;;-1.90;97.80;;;;;;5095870;28;20394;-82
2023/01/27 06:55:34;;;;;;;7.78;5.60;;;-1.80;97.80;;;;;;5075049;28;20075;-81
2023/01/27 06:58:01;;;;;;;6.15;5.65;;;-1.80;98.00;;;;;;5090431;28;20052;-80
2023/01/27 07:00:27;;;;;;;8.95;6.05;;;-1.80;98.00;;;;;;5095880;28;20036;-80
2023/01/27 07:02:56;;;;;;;6.95;6.25;;;-1.80;97.90;;;;;;5092883;28;20042;-81
2023/01/27 07:05:22;;;;;;;4.35;4.05;;;-1.90;98.10;;;;;;5096307;28;20074;-82
2023/01/27 07:07:48;;;;;;;7.63;6.95;;;-1.70;98.40;;;;;;5090271;28;20466;-81
2023/01/27 07:10:14;;;;;;;7.38;6.80;;;-1.60;99.10;;;;;;5098528;28;20039;-82
2023/01/27 07:12:39;;;;;;;8.13;7.43;;;-1.80;98.50;;;;;;5096834;28;20031;-82
2023/01/27 07:15:07;;;;;;;7.95;7.35;;;-1.80;98.50;;;;;;5089468;28;20044;-83
2023/01/27 07:17:34;;;;;;;6.72;6.10;;;-1.80;98.30;;;;;;5098357;28;20027;-84
2023/01/27 07:20:00;;;;;;;8.07;6.40;;;-1.80;98.50;;;;;;5095500;28;20028;-83
2023/01/27 07:22:26;;;;;;;7.18;6.57;;;-1.70;98.70;;;;;;5100196;28;20060;-83
2023/01/27 07:24:51;;;;;;;5.60;5.13;;;-1.60;98.30;;;;;;5094277;28;20043;-83
2023/01/27 07:27:17;;;;;;;43.90;40.53;;;-1.70;98.30;;;;;;5091280;28;20574;-83
2023/01/27 07:29:43;;;;;;;6.10;5.57;;;-1.70;98.20;;;;;;5099210;28;20039;-82
2023/01/27 07:32:09;;;;;;;5.95;5.45;;;-1.60;98.40;;;;;;5096922;28;20032;-83
2023/01/27 07:34:34;;;;;;;8.40;7.85;;;-1.60;98.30;;;;;;5088875;28;20028;-83
2023/01/27 07:37:00;;;;;;;5.72;5.30;;;-1.70;98.30;;;;;;5097571;28;20028;-83
2023/01/27 07:39:26;;;;;;;7.20;6.53;;;-1.70;97.90;;;;;;5088449;28;20409;-81
2023/01/27 07:41:52;;;;;;;6.93;6.32;;;-1.80;97.90;;;;;;5097350;28;20401;-84
2023/01/27 07:44:20;;;;;;;5.22;4.88;;;-1.70;98.40;;;;;;5104117;28;20036;-82
2023/01/27 07:46:46;;;;;;;5.22;4.82;;;-1.60;98.30;;;;;;5098800;28;20413;-82
2023/01/27 07:49:11;;;;;;;6.55;6.13;;;-1.60;98.00;;;;;;5081972;28;20039;-83
2023/01/27 07:51:37;;;;;;;7.40;6.88;;;-1.60;98.00;;;;;;5099318;28;20175;-81
2023/01/27 07:54:04;;;;;;;6.57;6.07;;;-1.60;98.00;;;;;;5095905;28;20063;-83
2023/01/27 07:56:31;;;;;;;7.28;6.57;;;-1.60;98.20;;;;;;5106625;28;20028;-82
2023/01/27 07:58:57;;;;;;;8.07;6.25;;;-1.70;97.80;;;;;;5097976;28;20027;-83
2023/01/27 08:01:23;;;;;;;10.35;9.55;;;-1.70;97.70;;;;;;5101231;28;20051;-83
2023/01/27 08:03:49;;;;;;;23.27;22.02;;;-1.80;97.90;;;;;;5098060;28;20060;-82
2023/01/27 08:06:14;;;;;;;5.75;5.32;;;-1.80;98.30;;;;;;5129721;27;20110;-83
2023/01/27 08:08:40;;;;;;;3.88;3.65;;;-1.80;98.50;;;;;;5104625;28;20040;-82
2023/01/27 08:11:09;;;;;;;6.32;5.90;;;-1.70;98.60;;;;;;5092934;28;20092;-82
2023/01/27 08:13:35;;;;;;;7.40;6.38;;;-1.70;98.60;;;;;;5104318;28;20028;-81
2023/01/27 08:16:07;;;;;;;7.78;7.18;;;-1.60;98.60;;;;;;5096721;28;20028;-82
2023/01/27 08:18:34;;;;;;;5.18;4.70;;;-1.70;97.90;;;;;;5092158;28;20039;-82
2023/01/27 08:21:01;;;;;;;6.20;5.70;;;-1.70;97.80;;;;;;5101533;28;20486;-82
2023/01/27 08:23:28;;;;;;;6.40;5.85;;;-1.80;97.80;;;;;;5100161;28;20390;-81
2023/01/27 08:25:56;;;;;;;5.15;4.75;;;-1.70;97.60;;;;;;5101661;28;20023;-82
2023/01/27 08:28:24;;;;;;;10.07;6.28;;;-1.80;97.10;;;;;;5090570;28;20055;-80
2023/01/27 08:30:50;;;;;;;4.85;4.45;;;-1.80;97.40;;;;;;5102284;28;20470;-82
2023/01/27 08:33:17;;;;;;;5.50;5.10;;;-1.70;97.10;;;;;;5092711;28;20032;-80
2023/01/27 08:35:43;;;;;;;6.07;5.45;;;-1.70;97.20;;;;;;5093970;28;20066;-82
2023/01/27 08:38:13;;;;;;;6.05;5.57;;;-1.70;97.00;;;;;;5100672;28;20067;-80
2023/01/27 08:40:41;;;;;;;5.47;5.07;;;-1.70;97.10;;;;;;5096432;28;20024;-81
2023/01/27 08:43:09;;;;;;;5.50;5.10;;;-1.70;97.10;;;;;;5104935;28;20028;-82
2023/01/27 08:45:35;;;;;;;5.13;4.70;;;-1.70;96.70;;;;;;5074180;28;20482;-81
2023/01/27 08:48:01;;;;;;;5.28;4.88;;;-1.70;96.80;;;;;;5100417;28;20104;-82
2023/01/27 08:50:31;;;;;;;5.65;5.22;;;-1.60;97.00;;;;;;5098671;28;20490;-82
2023/01/27 08:53:00;;;;;;;10.02;9.32;;;-1.60;96.60;;;;;;5099663;28;20039;-81
2023/01/27 08:55:28;;;;;;;6.70;6.22;;;-1.50;96.80;;;;;;5095330;28;20035;-81
2023/01/27 08:57:54;;;;;;;6.30;5.80;;;-1.40;96.30;;;;;;5099155;28;20129;-82
2023/01/27 09:00:20;;;;;;;6.55;6.05;;;-1.50;96.40;;;;;;5100335;28;20499;-80
2023/01/27 09:02:46;;;;;;;8.05;6.63;;;-1.30;96.60;;;;;;5096709;28;20028;-82
2023/01/27 09:05:12;;;;;;;6.13;5.55;;;-1.20;96.00;;;;;;5100602;28;20462;-81
2023/01/27 09:07:37;;;;;;;5.78;5.28;;;-1.20;96.00;;;;;;5084227;28;20031;-81
2023/01/27 09:10:04;;;;;;;6.18;5.57;;;-1.00;95.80;;;;;;5090806;28;20421;-80
2023/01/27 09:12:30;;;;;;;5.32;4.85;;;-1.00;95.50;;;;;;5081557;28;20032;-81
2023/01/27 09:14:57;;;;;;;5.43;5.03;;;-1.00;95.60;;;;;;5077785;28;20043;-81
2023/01/27 09:17:23;;;;;;;5.40;5.00;;;-1.00;95.80;;;;;;5105647;28;20028;-80
2023/01/27 09:19:50;;;;;;;4.68;4.38;;;-1.10;95.80;;;;;;5097427;28;20036;-81
2023/01/27 09:22:16;;;;;;;5.00;4.60;;;-1.10;95.90;;;;;;5087320;28;20067;-81
2023/01/27 09:24:42;;;;;;;5.07;4.65;;;-1.10;96.70;;;;;;5066073;28;20043;-80
2023/01/27 09:27:07;;;;;;;4.95;4.55;;;-1.30;96.60;;;;;;5074332;28;20131;-82
2023/01/27 09:29:36;;;;;;;6.07;5.50;;;-1.30;96.20;;;;;;5094219;28;20039;-81
2023/01/27 09:32:02;;;;;;;4.25;3.90;;;-1.30;96.10;;;;;;5080254;28;20031;-81
2023/01/27 09:34:29;;;;;;;5.78;5.32;;;-1.20;95.70;;;;;;5085204;28;20025;-81
2023/01/27 09:37:01;;;;;;;6.65;5.50;;;-1.50;96.40;;;;;;5083306;28;20494;-82
2023/01/27 09:39:29;;;;;;;10.50;6.40;;;-1.40;95.90;;;;;;5085294;28;20036;-81
2023/01/27 09:42:16;;;;;;;6.95;4.82;;;-1.30;95.70;;;;;;5086026;28;20035;-82
2023/01/27 09:44:52;;;;;;;7.65;5.00;;;-1.30;95.90;;;;;;5094569;28;20040;-81
2023/01/27 09:47:36;;;;;;;6.05;5.47;;;-1.30;95.90;;;;;;5076220;28;20029;-81
2023/01/27 09:50:11;;;;;;;5.05;4.55;;;-1.40;95.80;;;;;;5082943;28;20028;-82
2023/01/27 09:52:59;;;;;;;4.22;3.92;;;-1.30;96.60;;;;;;5089543;28;20024;-82
2023/01/27 09:56:05;;;;;;;29.10;27.67;;;-1.30;96.60;;;;;;5088604;28;20461;-81
2023/01/27 09:59:03;;;;;;;6.70;5.55;;;-1.40;96.80;;;;;;5087264;28;20398;-81
2023/01/27 10:01:44;;;;;;;5.30;4.85;;;-1.40;96.40;;;;;;5083015;28;20032;-81
2023/01/27 10:04:25;;;;;;;6.63;5.88;;;-1.30;96.30;;;;;;5087970;28;20028;-83
2023/01/27 10:07:06;;;;;;;;;;;-1.20;95.40;;;;;;5082271;28;20459;-81
2023/01/27 10:09:45;;;;;;;;;;;-1.00;94.90;;;;;;5088881;28;19915;-81
2023/01/27 10:12:18;;;;;;;5.97;4.80;;;-1.10;94.90;;;;;;5081890;28;19962;-81
2023/01/27 10:15:01;;;;;;;7.25;5.10;;;-1.10;95.60;;;;;;5088994;28;20433;-81
2023/01/27 10:17:33;;;;;;;6.03;5.50;;;-0.90;95.10;;;;;;5089325;28;20031;-81
2023/01/27 10:20:13;;;;;;;10.32;4.25;;;-0.90;95.20;;;;;;5082226;28;20031;-81
2023/01/27 10:22:56;;;;;;;4.40;3.70;;;-0.80;95.10;;;;;;5088330;28;20126;-81
2023/01/27 10:25:31;;;;;;;6.88;5.72;;;-0.90;94.70;;;;;;5077714;28;20025;-81
2023/01/27 10:28:00;;;;;;;6.28;5.38;;;-0.80;95.30;;;;;;5093401;28;20021;-80
2023/01/27 10:30:34;;;;;;;5.63;4.93;;;-0.80;95.20;;;;;;5069530;28;20041;-81
2023/01/27 10:33:20;;;;;;;7.75;4.22;;;-0.80;94.50;;;;;;5076922;28;20497;-80
2023/01/27 10:35:58;;;;;;;4.88;4.45;;;-0.80;93.80;;;;;;5063430;28;20036;-80
2023/01/27 10:38:51;;;;;;;4.78;4.22;;;-0.80;93.70;;;;;;5092329;28;20032;-81
2023/01/27 10:41:24;;;;;;;6.32;5.60;;;-0.90;94.00;;;;;;5089055;28;20081;-80
2023/01/27 10:44:08;;;;;;;43.75;40.17;;;-0.90;94.20;;;;;;5099457;28;20094;-80
2023/01/27 10:46:47;;;;;;;4.50;4.15;;;-0.80;94.60;;;;;;5089337;28;20032;-81
2023/01/27 10:49:30;;;;;;;4.97;4.57;;;-0.60;94.70;;;;;;5086702;28;20733;-80
2023/01/27 10:52:09;;;;;;;5.90;5.00;;;-0.50;94.30;;;;;;5091031;28;20085;-81
2023/01/27 10:54:52;;;;;;;6.63;4.45;;;-0.40;93.70;;;;;;5092767;28;20056;-80
2023/01/27 10:57:35;;;;;;;4.35;3.95;;;-0.50;93.50;;;;;;5086611;28;20024;-80
2023/01/27 11:00:06;;;;;;;5.00;4.60;;;-0.60;93.80;;;;;;5082730;28;20052;-80
2023/01/27 11:02:34;;;;;;;6.45;4.60;;;-0.60;93.50;;;;;;5088358;28;20399;-81
2023/01/27 11:05:07;;;;;;;3.78;3.45;;;-0.80;93.80;;;;;;5088208;28;20487;-81
2023/01/27 11:07:38;;;;;;;7.38;3.47;;;-0.70;94.00;;;;;;5073577;28;20040;-80
2023/01/27 11:10:16;;;;;;;6.57;4.85;;;-0.70;94.00;;;;;;5086629;28;20032;-81
2023/01/27 11:12:50;;;;;;;3.40;3.17;;;-0.60;93.70;;;;;;5064048;28;20032;-80
2023/01/27 11:15:19;;;;;;;4.97;4.57;;;-0.60;94.00;;;;;;5086898;28;20021;-82
2023/01/27 11:17:56;;;;;;;3.13;2.92;;;-0.70;94.50;;;;;;5088227;28;20700;-81
2023/01/27 11:20:34;;;;;;;3.45;3.15;;;-0.90;94.50;;;;;;5089891;28;20414;-82
2023/01/27 11:23:14;;;;;;;3.35;3.10;;;-0.60;94.30;;;;;;5094949;28;20386;-82
2023/01/27 11:26:02;;;;;;;4.22;3.83;;;-0.60;93.70;;;;;;5090129;28;20016;-82
2023/01/27 11:29:01;;;;;;;13.20;4.13;;;-0.50;93.60;;;;;;5091631;28;20024;-81
2023/01/27 11:31:45;;;;;;;47.65;42.47;;;-0.30;94.20;;;;;;5074101;28;20038;-81
2023/01/27 11:34:32;;;;;;;3.65;3.35;;;-0.60;93.50;;;;;;5086888;28;20027;-80
2023/01/27 11:36:58;;;;;;;7.80;4.03;;;-0.50;93.70;;;;;;5087392;28;20107;-81
2023/01/27 11:39:28;;;;;;;4.13;3.58;;;-0.60;93.50;;;;;;5074515;28;20036;-81
2023/01/27 11:41:55;;;;;;;3.97;3.67;;;-0.50;93.70;;;;;;5102332;28;20119;-80
2023/01/27 11:44:25;;;;;;;10.70;4.55;;;-0.50;93.60;;;;;;5095499;28;20047;-82
2023/01/27 11:46:53;;;;;;;5.57;3.05;;;-0.40;93.50;;;;;;5093869;28;20025;-82
2023/01/27 11:49:28;;;;;;;6.05;4.30;;;-0.50;93.30;;;;;;5092706;28;20040;-80
2023/01/27 11:52:12;;;;;;;4.13;3.72;;;-0.50;93.60;;;;;;5086175;28;20077;-80
2023/01/27 11:55:12;;;;;;;5.07;4.50;;;-0.10;93.20;;;;;;5089726;28;20035;-80
2023/01/27 11:57:43;;;;;;;5.07;3.85;;;0.20;92.50;;;;;;5084068;28;20081;-80
2023/01/27 12:00:18;;;;;;;5.38;4.13;;;0.40;92.50;;;;;;5083170;28;20513;-79
2023/01/27 12:02:53;;;;;;;3.05;2.85;;;0.50;92.20;;;;;;5088896;28;20111;-79
2023/01/27 12:05:29;;;;;;;4.78;4.15;;;0.20;92.10;;;;;;5091271;28;20024;-79
2023/01/27 12:07:58;;;;;;;3.70;3.35;;;-0.20;92.30;;;;;;5082275;28;20537;-79
2023/01/27 12:10:34;;;;;;;5.32;4.30;;;-0.40;93.20;;;;;;5075335;28;20039;-81
2023/01/27 12:13:08;;;;;;;4.43;3.90;;;-0.40;93.10;;;;;;5085090;28;20505;-82
2023/01/27 12:15:36;;;;;;;4.85;4.18;;;-0.50;93.60;;;;;;5062688;28;20039;-80
2023/01/27 12:18:12;;;;;;;4.63;3.95;;;-0.30;93.40;;;;;;5090306;28;20024;-80
2023/01/27 12:20:47;;;;;;;4.50;3.80;;;-0.40;92.90;;;;;;5092035;28;20023;-79
2023/01/27 12:23:35;;;;;;;4.95;3.55;;;-0.50;93.20;;;;;;5099928;28;20126;-82
2023/01/27 12:26:09;;;;;;;4.65;3.55;;;-0.60;93.50;;;;;;5088129;28;20394;-81
2023/01/27 12:28:52;;;;;;;3.92;3.42;;;-0.60;93.50;;;;;;5091596;28;20477;-80
2023/01/27 12:31:30;;;;;;;3.63;3.33;;;-0.60;93.60;;;;;;5083067;28;20033;-80
2023/01/27 12:34:19;;;;;;;6.53;3.65;;;-0.50;93.20;;;;;;5071519;28;20029;-80
2023/01/27 12:36:46;;;;;;;4.95;4.22;;;-0.40;93.30;;;;;;5080789;28;20036;-80
2023/01/27 12:39:35;;;;;;;3.72;3.30;;;-0.30;92.90;;;;;;5079569;28;20028;-80
2023/01/27 12:42:02;;;;;;;3.88;3.58;;;-0.20;92.60;;;;;;5112551;27;20398;-81
2023/01/27 12:44:41;;;;;;;4.13;3.75;;;-0.20;92.60;;;;;;5092898;28;20032;-79
2023/01/27 12:47:24;;;;;;;6.18;4.43;;;-0.10;92.30;;;;;;5092432;28;20139;-79
2023/01/27 12:49:51;;;;;;;4.22;3.67;;;-0.30;92.20;;;;;;5081286;28;20513;-79
2023/01/27 12:52:19;;;;;;;8.90;4.63;;;-0.20;93.40;;;;;;5068469;28;20039;-80
2023/01/27 12:54:46;;;;;;;4.78;4.28;;;-0.40;93.00;;;;;;5090699;28;20065;-79
2023/01/27 12:57:16;;;;;;;4.13;3.53;;;-0.30;92.80;;;;;;5090087;28;20650;-79
2023/01/27 12:59:50;;;;;;;4.25;3.40;;;-0.30;92.70;;;;;;5083107;28;20086;-79
2023/01/27 13:02:24;;;;;;;4.15;3.70;;;-0.30;92.90;;;;;;5086830;28;20048;-80
2023/01/27 13:05:02;;;;;;;4.05;3.65;;;-0.20;92.60;;;;;;5081581;28;20033;-81
2023/01/27 13:07:45;;;;;;;4.28;3.88;;;-0.20;92.20;;;;;;5066866;28;20058;-80
2023/01/27 13:10:22;;;;;;;3.25;3.00;;;0.00;91.80;;;;;;5072928;28;20101;-79
2023/01/27 13:13:13;;;;;;;3.80;3.45;;;0.10;91.20;;;;;;5061904;28;20025;-79
2023/01/27 13:16:08;;;;;;;3.47;3.17;;;0.20;91.20;;;;;;5123007;27;20398;-80
2023/01/27 13:18:41;;;;;;;3.40;3.08;;;0.20;90.90;;;;;;5083980;28;20028;-80
2023/01/27 13:21:10;;;;;;;6.60;3.88;;;0.20;91.30;;;;;;5093658;28;20083;-81
2023/01/27 13:23:39;;;;;;;2.70;2.53;;;0.20;91.20;;;;;;5086166;28;20077;-80
2023/01/27 13:26:14;;;;;;;3.72;3.30;;;0.30;91.10;;;;;;5092729;28;20024;-80
2023/01/27 13:28:55;;;;;;;4.07;3.70;;;0.10;91.20;;;;;;5091998;28;20020;-81
2023/01/27 13:31:33;;;;;;;3.30;3.10;;;-0.10;91.40;;;;;;5087012;28;20139;-80
2023/01/27 13:34:51;;;;;;;4.70;4.30;;;0.00;91.50;;;;;;5083037;28;20390;-80